sensor_id;sensor_type;location;lat;lon;timestamp;P1;durP1;ratioP1;P2;durP2;ratioP2
29878;SDS011;16752;53.364;-1.488;2023-04-25T00:01:16;8.77;;;3.40;;
29878;SDS011;16752;53.364;-1.488;2023-04-25T00:04:00;11.02;;;2.78;;
29878;SDS011;16752;53.364;-1.488;2023-04-25T00:06:44;7.63;;;2.33;;
29878;SDS011;16752;53.364;-1.488;2023-04-25T00:09:28;10.52;;;3.10;;
29878;SDS011;16752;53.364;-1.488;2023-04-25T00:12:12;9.52;;;2.78;;
29878;SDS011;16752;53.364;-1.488;2023-04-25T00:14:56;14.63;;;2.60;;
29878;SDS011;16752;53.364;-1.488;2023-04-25T00:17:41;8.70;;;2.75;;
29878;SDS011;16752;53.364;-1.488;2023-04-25T00:20:26;9.25;;;3.22;;
29878;SDS011;16752;53.364;-1.488;2023-04-25T00:23:10;11.25;;;3.58;;
29878;SDS011;16752;53.364;-1.488;2023-04-25T00:25:54;10.90;;;2.55;;
29878;SDS011;16752;53.364;-1.488;2023-04-25T00:28:39;9.82;;;2.45;;
29878;SDS011;16752;53.364;-1.488;2023-04-25T00:31:26;14.60;;;3.22;;
29878;SDS011;16752;53.364;-1.488;2023-04-25T00:34:10;15.38;;;3.20;;
29878;SDS011;16752;53.364;-1.488;2023-04-25T00:36:56;14.85;;;3.30;;
29878;SDS011;16752;53.364;-1.488;2023-04-25T00:39:41;17.35;;;3.30;;
29878;SDS011;16752;53.364;-1.488;2023-04-25T00:42:25;14.25;;;3.20;;
29878;SDS011;16752;53.364;-1.488;2023-04-25T00:45:10;10.05;;;3.05;;
29878;SDS011;16752;53.364;-1.488;2023-04-25T00:47:57;6.20;;;2.88;;
29878;SDS011;16752;53.364;-1.488;2023-04-25T00:50:43;8.10;;;2.70;;
29878;SDS011;16752;53.364;-1.488;2023-04-25T00:53:45;11.55;;;3.20;;
29878;SDS011;16752;53.364;-1.488;2023-04-25T00:56:31;7.65;;;3.13;;
29878;SDS011;16752;53.364;-1.488;2023-04-25T00:59:15;13.50;;;4.13;;
29878;SDS011;16752;53.364;-1.488;2023-04-25T01:01:59;6.18;;;3.10;;
29878;SDS011;16752;53.364;-1.488;2023-04-25T01:04:44;7.15;;;2.53;;
29878;SDS011;16752;53.364;-1.488;2023-04-25T01:07:28;7.63;;;2.63;;
29878;SDS011;16752;53.364;-1.488;2023-04-25T01:10:13;5.82;;;2.53;;
29878;SDS011;16752;53.364;-1.488;2023-04-25T01:12:57;9.88;;;2.95;;
29878;SDS011;16752;53.364;-1.488;2023-04-25T01:15:44;6.28;;;2.83;;
29878;SDS011;16752;53.364;-1.488;2023-04-25T01:18:31;9.23;;;2.70;;
29878;SDS011;16752;53.364;-1.488;2023-04-25T01:21:15;8.63;;;2.70;;
29878;SDS011;16752;53.364;-1.488;2023-04-25T01:24:00;15.32;;;2.83;;
29878;SDS011;16752;53.364;-1.488;2023-04-25T01:26:47;7.53;;;2.78;;
29878;SDS011;16752;53.364;-1.488;2023-04-25T01:29:34;5.50;;;2.60;;
29878;SDS011;16752;53.364;-1.488;2023-04-25T01:32:18;12.00;;;2.83;;
29878;SDS011;16752;53.364;-1.488;2023-04-25T01:35:12;5.80;;;2.33;;
29878;SDS011;16752;53.364;-1.488;2023-04-25T01:37:56;13.77;;;3.10;;
29878;SDS011;16752;53.364;-1.488;2023-04-25T01:40:42;9.27;;;2.20;;
29878;SDS011;16752;53.364;-1.488;2023-04-25T01:43:29;11.15;;;3.33;;
29878;SDS011;16752;53.364;-1.488;2023-04-25T01:46:13;13.13;;;3.20;;
29878;SDS011;16752;53.364;-1.488;2023-04-25T01:49:03;8.10;;;2.90;;
29878;SDS011;16752;53.364;-1.488;2023-04-25T01:51:48;8.13;;;3.13;;
29878;SDS011;16752;53.364;-1.488;2023-04-25T01:54:31;9.10;;;2.50;;
29878;SDS011;16752;53.364;-1.488;2023-04-25T01:57:15;5.45;;;2.58;;
29878;SDS011;16752;53.364;-1.488;2023-04-25T02:00:00;14.98;;;3.30;;
29878;SDS011;16752;53.364;-1.488;2023-04-25T02:03:00;12.18;;;3.53;;
29878;SDS011;16752;53.364;-1.488;2023-04-25T02:05:46;10.73;;;2.90;;
29878;SDS011;16752;53.364;-1.488;2023-04-25T02:08:30;8.10;;;2.50;;
29878;SDS011;16752;53.364;-1.488;2023-04-25T02:11:15;9.32;;;2.40;;
29878;SDS011;16752;53.364;-1.488;2023-04-25T02:13:59;7.78;;;2.92;;
29878;SDS011;16752;53.364;-1.488;2023-04-25T02:20:13;8.80;;;2.65;;
29878;SDS011;16752;53.364;-1.488;2023-04-25T02:22:59;5.93;;;2.55;;
29878;SDS011;16752;53.364;-1.488;2023-04-25T02:25:43;10.85;;;2.45;;
29878;SDS011;16752;53.364;-1.488;2023-04-25T02:28:30;9.40;;;2.72;;
29878;SDS011;16752;53.364;-1.488;2023-04-25T02:31:14;9.73;;;3.10;;
29878;SDS011;16752;53.364;-1.488;2023-04-25T02:33:58;8.27;;;2.35;;
29878;SDS011;16752;53.364;-1.488;2023-04-25T02:36:42;6.05;;;2.08;;
29878;SDS011;16752;53.364;-1.488;2023-04-25T02:39:33;7.80;;;2.65;;
29878;SDS011;16752;53.364;-1.488;2023-04-25T02:42:20;10.82;;;2.50;;
29878;SDS011;16752;53.364;-1.488;2023-04-25T02:45:07;11.82;;;2.75;;
29878;SDS011;16752;53.364;-1.488;2023-04-25T02:47:51;10.65;;;2.65;;
29878;SDS011;16752;53.364;-1.488;2023-04-25T02:50:35;7.82;;;2.70;;
29878;SDS011;16752;53.364;-1.488;2023-04-25T02:53:20;8.93;;;2.70;;
29878;SDS011;16752;53.364;-1.488;2023-04-25T02:56:04;11.73;;;2.90;;
29878;SDS011;16752;53.364;-1.488;2023-04-25T02:58:49;3.83;;;2.20;;
29878;SDS011;16752;53.364;-1.488;2023-04-25T03:01:33;8.50;;;2.97;;
29878;SDS011;16752;53.364;-1.488;2023-04-25T03:04:17;9.32;;;2.67;;
29878;SDS011;16752;53.364;-1.488;2023-04-25T03:07:03;6.30;;;2.58;;
29878;SDS011;16752;53.364;-1.488;2023-04-25T03:09:47;5.93;;;2.40;;
29878;SDS011;16752;53.364;-1.488;2023-04-25T03:12:33;5.63;;;1.98;;
29878;SDS011;16752;53.364;-1.488;2023-04-25T03:15:18;9.43;;;2.65;;
29878;SDS011;16752;53.364;-1.488;2023-04-25T03:18:04;5.38;;;2.65;;
29878;SDS011;16752;53.364;-1.488;2023-04-25T03:20:48;11.75;;;2.20;;
29878;SDS011;16752;53.364;-1.488;2023-04-25T03:23:32;12.40;;;2.67;;
29878;SDS011;16752;53.364;-1.488;2023-04-25T03:26:19;11.65;;;2.63;;
29878;SDS011;16752;53.364;-1.488;2023-04-25T03:29:03;7.35;;;2.00;;
29878;SDS011;16752;53.364;-1.488;2023-04-25T03:31:48;9.38;;;2.15;;
29878;SDS011;16752;53.364;-1.488;2023-04-25T03:34:32;12.35;;;2.80;;
29878;SDS011;16752;53.364;-1.488;2023-04-25T03:37:16;8.82;;;2.25;;
29878;SDS011;16752;53.364;-1.488;2023-04-25T03:40:00;10.68;;;2.65;;
29878;SDS011;16752;53.364;-1.488;2023-04-25T03:42:44;5.03;;;1.92;;
29878;SDS011;16752;53.364;-1.488;2023-04-25T03:45:28;12.27;;;2.45;;
29878;SDS011;16752;53.364;-1.488;2023-04-25T03:48:14;9.77;;;2.15;;
29878;SDS011;16752;53.364;-1.488;2023-04-25T03:50:58;6.30;;;2.00;;
29878;SDS011;16752;53.364;-1.488;2023-04-25T03:53:42;5.43;;;2.33;;
29878;SDS011;16752;53.364;-1.488;2023-04-25T03:56:26;5.95;;;2.08;;
29878;SDS011;16752;53.364;-1.488;2023-04-25T03:59:12;4.22;;;2.00;;
29878;SDS011;16752;53.364;-1.488;2023-04-25T04:01:59;7.65;;;2.00;;
29878;SDS011;16752;53.364;-1.488;2023-04-25T04:07:40;11.45;;;2.75;;
29878;SDS011;16752;53.364;-1.488;2023-04-25T04:10:26;7.07;;;2.15;;
29878;SDS011;16752;53.364;-1.488;2023-04-25T04:13:10;8.10;;;2.67;;
29878;SDS011;16752;53.364;-1.488;2023-04-25T04:15:54;8.25;;;2.35;;
29878;SDS011;16752;53.364;-1.488;2023-04-25T04:18:39;8.90;;;2.38;;
29878;SDS011;16752;53.364;-1.488;2023-04-25T04:21:23;10.10;;;2.20;;
29878;SDS011;16752;53.364;-1.488;2023-04-25T04:24:07;12.23;;;2.33;;
29878;SDS011;16752;53.364;-1.488;2023-04-25T04:26:51;8.57;;;2.30;;
29878;SDS011;16752;53.364;-1.488;2023-04-25T04:29:38;7.78;;;2.47;;
29878;SDS011;16752;53.364;-1.488;2023-04-25T04:32:23;5.65;;;2.13;;
29878;SDS011;16752;53.364;-1.488;2023-04-25T04:35:09;10.20;;;2.75;;
29878;SDS011;16752;53.364;-1.488;2023-04-25T04:37:55;7.88;;;2.35;;
29878;SDS011;16752;53.364;-1.488;2023-04-25T04:40:39;6.25;;;2.42;;
29878;SDS011;16752;53.364;-1.488;2023-04-25T04:43:25;8.75;;;2.10;;
29878;SDS011;16752;53.364;-1.488;2023-04-25T04:46:09;6.00;;;2.75;;
29878;SDS011;16752;53.364;-1.488;2023-04-25T04:48:56;4.30;;;2.00;;
29878;SDS011;16752;53.364;-1.488;2023-04-25T04:51:46;9.80;;;2.60;;
29878;SDS011;16752;53.364;-1.488;2023-04-25T04:54:33;10.60;;;1.90;;
29878;SDS011;16752;53.364;-1.488;2023-04-25T04:57:18;7.63;;;2.55;;
29878;SDS011;16752;53.364;-1.488;2023-04-25T05:00:05;3.90;;;2.10;;
29878;SDS011;16752;53.364;-1.488;2023-04-25T05:03:10;9.27;;;2.38;;
29878;SDS011;16752;53.364;-1.488;2023-04-25T05:05:55;9.52;;;2.30;;
29878;SDS011;16752;53.364;-1.488;2023-04-25T05:08:39;7.85;;;1.95;;
29878;SDS011;16752;53.364;-1.488;2023-04-25T05:11:29;7.03;;;2.22;;
29878;SDS011;16752;53.364;-1.488;2023-04-25T05:14:16;2.92;;;1.98;;
29878;SDS011;16752;53.364;-1.488;2023-04-25T05:17:01;9.85;;;2.53;;
29878;SDS011;16752;53.364;-1.488;2023-04-25T05:19:47;3.47;;;1.90;;
29878;SDS011;16752;53.364;-1.488;2023-04-25T05:22:34;7.32;;;2.20;;
29878;SDS011;16752;53.364;-1.488;2023-04-25T05:25:19;8.85;;;2.33;;
29878;SDS011;16752;53.364;-1.488;2023-04-25T05:28:12;9.82;;;2.35;;
29878;SDS011;16752;53.364;-1.488;2023-04-25T05:31:10;11.23;;;1.92;;
29878;SDS011;16752;53.364;-1.488;2023-04-25T05:34:00;8.57;;;2.10;;
29878;SDS011;16752;53.364;-1.488;2023-04-25T05:36:44;5.35;;;2.20;;
29878;SDS011;16752;53.364;-1.488;2023-04-25T05:40:04;4.43;;;1.88;;
29878;SDS011;16752;53.364;-1.488;2023-04-25T05:45:39;10.57;;;2.53;;
29878;SDS011;16752;53.364;-1.488;2023-04-25T05:48:31;3.95;;;1.75;;
29878;SDS011;16752;53.364;-1.488;2023-04-25T05:51:14;11.60;;;3.10;;
29878;SDS011;16752;53.364;-1.488;2023-04-25T05:54:33;6.68;;;2.03;;
29878;SDS011;16752;53.364;-1.488;2023-04-25T05:57:18;7.03;;;2.38;;
29878;SDS011;16752;53.364;-1.488;2023-04-25T06:00:09;7.85;;;1.98;;
29878;SDS011;16752;53.364;-1.488;2023-04-25T06:03:06;6.57;;;2.38;;
29878;SDS011;16752;53.364;-1.488;2023-04-25T06:05:58;8.32;;;2.58;;
29878;SDS011;16752;53.364;-1.488;2023-04-25T06:08:49;6.05;;;2.25;;
29878;SDS011;16752;53.364;-1.488;2023-04-25T06:11:42;15.77;;;3.13;;
29878;SDS011;16752;53.364;-1.488;2023-04-25T06:14:28;8.30;;;2.60;;
29878;SDS011;16752;53.364;-1.488;2023-04-25T06:17:15;7.80;;;2.50;;
29878;SDS011;16752;53.364;-1.488;2023-04-25T06:20:09;3.83;;;1.67;;
29878;SDS011;16752;53.364;-1.488;2023-04-25T06:23:11;10.15;;;2.25;;
29878;SDS011;16752;53.364;-1.488;2023-04-25T06:26:11;8.18;;;2.58;;
29878;SDS011;16752;53.364;-1.488;2023-04-25T06:28:55;16.52;;;2.67;;
29878;SDS011;16752;53.364;-1.488;2023-04-25T06:31:39;2.33;;;2.03;;
29878;SDS011;16752;53.364;-1.488;2023-04-25T06:34:26;7.40;;;1.90;;
29878;SDS011;16752;53.364;-1.488;2023-04-25T06:37:10;6.63;;;2.40;;
29878;SDS011;16752;53.364;-1.488;2023-04-25T06:39:54;9.45;;;2.65;;
29878;SDS011;16752;53.364;-1.488;2023-04-25T06:42:38;5.95;;;2.50;;
29878;SDS011;16752;53.364;-1.488;2023-04-25T06:45:22;7.68;;;2.20;;
29878;SDS011;16752;53.364;-1.488;2023-04-25T06:48:10;7.97;;;2.88;;
29878;SDS011;16752;53.364;-1.488;2023-04-25T06:50:54;6.30;;;1.90;;
29878;SDS011;16752;53.364;-1.488;2023-04-25T06:53:40;8.38;;;2.30;;
29878;SDS011;16752;53.364;-1.488;2023-04-25T06:56:24;13.32;;;2.58;;
29878;SDS011;16752;53.364;-1.488;2023-04-25T06:59:08;5.60;;;2.08;;
29878;SDS011;16752;53.364;-1.488;2023-04-25T07:01:52;15.77;;;2.20;;
29878;SDS011;16752;53.364;-1.488;2023-04-25T07:04:39;5.65;;;2.47;;
29878;SDS011;16752;53.364;-1.488;2023-04-25T07:10:40;5.32;;;2.00;;
29878;SDS011;16752;53.364;-1.488;2023-04-25T07:13:27;8.40;;;2.22;;
29878;SDS011;16752;53.364;-1.488;2023-04-25T07:16:11;3.95;;;2.38;;
29878;SDS011;16752;53.364;-1.488;2023-04-25T07:19:06;4.80;;;1.90;;
29878;SDS011;16752;53.364;-1.488;2023-04-25T07:21:55;5.15;;;2.13;;
29878;SDS011;16752;53.364;-1.488;2023-04-25T07:24:47;2.65;;;1.77;;
29878;SDS011;16752;53.364;-1.488;2023-04-25T07:27:32;6.70;;;2.05;;
29878;SDS011;16752;53.364;-1.488;2023-04-25T07:30:19;10.75;;;3.58;;
29878;SDS011;16752;53.364;-1.488;2023-04-25T07:33:03;8.30;;;2.60;;
29878;SDS011;16752;53.364;-1.488;2023-04-25T07:35:51;4.57;;;2.17;;
29878;SDS011;16752;53.364;-1.488;2023-04-25T07:38:36;9.90;;;2.13;;
29878;SDS011;16752;53.364;-1.488;2023-04-25T07:41:20;6.68;;;2.03;;
29878;SDS011;16752;53.364;-1.488;2023-04-25T07:44:07;3.70;;;1.75;;
29878;SDS011;16752;53.364;-1.488;2023-04-25T07:47:04;11.38;;;2.47;;
29878;SDS011;16752;53.364;-1.488;2023-04-25T07:49:53;8.18;;;2.40;;
29878;SDS011;16752;53.364;-1.488;2023-04-25T07:52:37;5.15;;;2.20;;
29878;SDS011;16752;53.364;-1.488;2023-04-25T07:55:21;4.00;;;1.88;;
29878;SDS011;16752;53.364;-1.488;2023-04-25T07:58:08;5.30;;;2.13;;
29878;SDS011;16752;53.364;-1.488;2023-04-25T08:00:53;8.13;;;2.70;;
29878;SDS011;16752;53.364;-1.488;2023-04-25T08:03:37;2.90;;;1.85;;
29878;SDS011;16752;53.364;-1.488;2023-04-25T08:06:21;6.70;;;2.28;;
29878;SDS011;16752;53.364;-1.488;2023-04-25T08:09:05;10.23;;;2.47;;
29878;SDS011;16752;53.364;-1.488;2023-04-25T08:11:49;6.72;;;2.53;;
29878;SDS011;16752;53.364;-1.488;2023-04-25T08:14:33;9.35;;;2.83;;
29878;SDS011;16752;53.364;-1.488;2023-04-25T08:17:19;7.45;;;2.38;;
29878;SDS011;16752;53.364;-1.488;2023-04-25T08:20:03;6.22;;;2.15;;
29878;SDS011;16752;53.364;-1.488;2023-04-25T08:22:49;7.65;;;2.28;;
29878;SDS011;16752;53.364;-1.488;2023-04-25T08:25:34;6.50;;;1.90;;
29878;SDS011;16752;53.364;-1.488;2023-04-25T08:28:17;8.52;;;2.30;;
29878;SDS011;16752;53.364;-1.488;2023-04-25T08:31:01;8.52;;;2.28;;
29878;SDS011;16752;53.364;-1.488;2023-04-25T08:33:46;6.93;;;2.30;;
29878;SDS011;16752;53.364;-1.488;2023-04-25T08:36:33;3.75;;;1.55;;
29878;SDS011;16752;53.364;-1.488;2023-04-25T08:39:17;5.45;;;2.58;;
29878;SDS011;16752;53.364;-1.488;2023-04-25T08:42:02;6.60;;;2.20;;
29878;SDS011;16752;53.364;-1.488;2023-04-25T08:44:50;7.53;;;2.58;;
29878;SDS011;16752;53.364;-1.488;2023-04-25T08:47:38;6.35;;;1.95;;
29878;SDS011;16752;53.364;-1.488;2023-04-25T08:50:23;8.90;;;1.95;;
29878;SDS011;16752;53.364;-1.488;2023-04-25T08:53:10;9.05;;;2.20;;
29878;SDS011;16752;53.364;-1.488;2023-04-25T08:56:02;3.72;;;1.60;;
29878;SDS011;16752;53.364;-1.488;2023-04-25T08:58:49;7.72;;;1.85;;
29878;SDS011;16752;53.364;-1.488;2023-04-25T09:01:36;5.40;;;1.83;;
29878;SDS011;16752;53.364;-1.488;2023-04-25T09:04:20;3.85;;;1.90;;
29878;SDS011;16752;53.364;-1.488;2023-04-25T09:07:04;11.32;;;1.95;;
29878;SDS011;16752;53.364;-1.488;2023-04-25T09:09:49;7.25;;;2.15;;
29878;SDS011;16752;53.364;-1.488;2023-04-25T09:12:32;4.53;;;1.50;;
29878;SDS011;16752;53.364;-1.488;2023-04-25T09:15:18;3.67;;;1.90;;
29878;SDS011;16752;53.364;-1.488;2023-04-25T09:18:03;3.72;;;1.92;;
29878;SDS011;16752;53.364;-1.488;2023-04-25T09:20:47;4.10;;;2.00;;
29878;SDS011;16752;53.364;-1.488;2023-04-25T09:23:31;7.60;;;2.13;;
29878;SDS011;16752;53.364;-1.488;2023-04-25T09:26:45;4.35;;;1.55;;
29878;SDS011;16752;53.364;-1.488;2023-04-25T09:29:33;10.43;;;2.30;;
29878;SDS011;16752;53.364;-1.488;2023-04-25T09:35:02;5.07;;;1.52;;
29878;SDS011;16752;53.364;-1.488;2023-04-25T09:37:48;4.57;;;1.80;;
29878;SDS011;16752;53.364;-1.488;2023-04-25T09:40:32;4.78;;;2.05;;
29878;SDS011;16752;53.364;-1.488;2023-04-25T09:43:19;3.60;;;2.30;;
29878;SDS011;16752;53.364;-1.488;2023-04-25T09:46:10;5.15;;;1.83;;
29878;SDS011;16752;53.364;-1.488;2023-04-25T09:48:55;4.03;;;1.90;;
29878;SDS011;16752;53.364;-1.488;2023-04-25T09:51:39;5.10;;;1.67;;
29878;SDS011;16752;53.364;-1.488;2023-04-25T09:54:23;3.42;;;1.70;;
29878;SDS011;16752;53.364;-1.488;2023-04-25T09:57:12;6.22;;;1.80;;
29878;SDS011;16752;53.364;-1.488;2023-04-25T09:59:58;4.85;;;2.00;;
29878;SDS011;16752;53.364;-1.488;2023-04-25T10:02:44;4.70;;;2.00;;
29878;SDS011;16752;53.364;-1.488;2023-04-25T10:05:32;11.23;;;1.95;;
29878;SDS011;16752;53.364;-1.488;2023-04-25T10:08:19;4.65;;;1.50;;
29878;SDS011;16752;53.364;-1.488;2023-04-25T10:11:05;3.95;;;1.88;;
29878;SDS011;16752;53.364;-1.488;2023-04-25T10:13:51;4.63;;;1.67;;
29878;SDS011;16752;53.364;-1.488;2023-04-25T10:16:36;2.10;;;1.60;;
29878;SDS011;16752;53.364;-1.488;2023-04-25T10:19:22;2.00;;;1.52;;
29878;SDS011;16752;53.364;-1.488;2023-04-25T10:22:29;5.53;;;1.73;;
29878;SDS011;16752;53.364;-1.488;2023-04-25T10:25:18;2.25;;;1.80;;
29878;SDS011;16752;53.364;-1.488;2023-04-25T10:28:03;7.82;;;2.40;;
29878;SDS011;16752;53.364;-1.488;2023-04-25T10:31:07;2.08;;;1.50;;
29878;SDS011;16752;53.364;-1.488;2023-04-25T10:33:52;4.75;;;1.30;;
29878;SDS011;16752;53.364;-1.488;2023-04-25T10:36:40;3.05;;;1.73;;
29878;SDS011;16752;53.364;-1.488;2023-04-25T10:39:24;5.78;;;1.60;;
29878;SDS011;16752;53.364;-1.488;2023-04-25T10:42:10;7.50;;;2.17;;
29878;SDS011;16752;53.364;-1.488;2023-04-25T10:45:04;5.13;;;1.60;;
29878;SDS011;16752;53.364;-1.488;2023-04-25T10:47:49;7.35;;;1.83;;
29878;SDS011;16752;53.364;-1.488;2023-04-25T10:50:39;2.03;;;1.30;;
29878;SDS011;16752;53.364;-1.488;2023-04-25T10:57:11;6.85;;;1.85;;
29878;SDS011;16752;53.364;-1.488;2023-04-25T11:00:33;3.63;;;2.03;;
29878;SDS011;16752;53.364;-1.488;2023-04-25T11:03:27;4.10;;;2.35;;
29878;SDS011;16752;53.364;-1.488;2023-04-25T11:09:48;4.63;;;2.08;;
29878;SDS011;16752;53.364;-1.488;2023-04-25T11:12:35;5.07;;;2.38;;
29878;SDS011;16752;53.364;-1.488;2023-04-25T11:18:35;5.60;;;2.20;;
29878;SDS011;16752;53.364;-1.488;2023-04-25T11:21:25;7.43;;;2.00;;
29878;SDS011;16752;53.364;-1.488;2023-04-25T11:24:16;3.35;;;2.15;;
29878;SDS011;16752;53.364;-1.488;2023-04-25T11:36:54;5.95;;;2.15;;
29878;SDS011;16752;53.364;-1.488;2023-04-25T11:40:01;4.30;;;2.13;;
29878;SDS011;16752;53.364;-1.488;2023-04-25T11:42:47;6.25;;;2.20;;
29878;SDS011;16752;53.364;-1.488;2023-04-25T11:45:37;7.18;;;2.28;;
29878;SDS011;16752;53.364;-1.488;2023-04-25T11:57:38;4.47;;;2.45;;
29878;SDS011;16752;53.364;-1.488;2023-04-25T12:07:29;4.28;;;2.28;;
29878;SDS011;16752;53.364;-1.488;2023-04-25T13:13:34;5.82;;;2.70;;
29878;SDS011;16752;53.364;-1.488;2023-04-25T13:16:21;7.47;;;2.90;;
29878;SDS011;16752;53.364;-1.488;2023-04-25T13:19:06;6.32;;;2.83;;
29878;SDS011;16752;53.364;-1.488;2023-04-25T13:21:51;4.10;;;2.45;;
29878;SDS011;16752;53.364;-1.488;2023-04-25T13:24:44;3.28;;;2.50;;
29878;SDS011;16752;53.364;-1.488;2023-04-25T13:31:31;6.03;;;2.72;;
29878;SDS011;16752;53.364;-1.488;2023-04-25T13:34:21;4.57;;;2.60;;
29878;SDS011;16752;53.364;-1.488;2023-04-25T13:37:16;4.88;;;2.70;;
29878;SDS011;16752;53.364;-1.488;2023-04-25T13:40:03;8.68;;;2.22;;
29878;SDS011;16752;53.364;-1.488;2023-04-25T13:43:05;3.03;;;2.10;;
29878;SDS011;16752;53.364;-1.488;2023-04-25T13:45:56;6.05;;;2.20;;
29878;SDS011;16752;53.364;-1.488;2023-04-25T13:48:40;5.32;;;2.42;;
29878;SDS011;16752;53.364;-1.488;2023-04-25T13:51:29;4.32;;;2.00;;
29878;SDS011;16752;53.364;-1.488;2023-04-25T13:54:20;6.30;;;3.13;;
29878;SDS011;16752;53.364;-1.488;2023-04-25T13:57:04;5.82;;;2.15;;
29878;SDS011;16752;53.364;-1.488;2023-04-25T13:59:50;3.33;;;1.95;;
29878;SDS011;16752;53.364;-1.488;2023-04-25T14:02:35;4.53;;;2.28;;
29878;SDS011;16752;53.364;-1.488;2023-04-25T14:08:32;2.00;;;1.90;;
29878;SDS011;16752;53.364;-1.488;2023-04-25T14:11:16;4.50;;;1.95;;
29878;SDS011;16752;53.364;-1.488;2023-04-25T14:14:02;3.88;;;2.47;;
29878;SDS011;16752;53.364;-1.488;2023-04-25T14:16:46;5.55;;;2.20;;
29878;SDS011;16752;53.364;-1.488;2023-04-25T14:19:33;6.65;;;2.42;;
29878;SDS011;16752;53.364;-1.488;2023-04-25T14:22:18;3.83;;;2.28;;
29878;SDS011;16752;53.364;-1.488;2023-04-25T14:25:09;4.63;;;2.65;;
29878;SDS011;16752;53.364;-1.488;2023-04-25T14:27:53;4.88;;;2.28;;
29878;SDS011;16752;53.364;-1.488;2023-04-25T14:31:10;3.55;;;2.05;;
29878;SDS011;16752;53.364;-1.488;2023-04-25T14:34:30;5.47;;;1.75;;
29878;SDS011;16752;53.364;-1.488;2023-04-25T14:41:17;6.95;;;2.08;;
29878;SDS011;16752;53.364;-1.488;2023-04-25T14:44:10;6.07;;;2.25;;
29878;SDS011;16752;53.364;-1.488;2023-04-25T14:46:55;5.03;;;2.13;;
29878;SDS011;16752;53.364;-1.488;2023-04-25T14:49:39;5.47;;;2.17;;
29878;SDS011;16752;53.364;-1.488;2023-04-25T14:52:27;5.05;;;2.63;;
29878;SDS011;16752;53.364;-1.488;2023-04-25T14:55:11;5.47;;;2.42;;
29878;SDS011;16752;53.364;-1.488;2023-04-25T14:57:56;3.80;;;1.95;;
29878;SDS011;16752;53.364;-1.488;2023-04-25T15:00:43;3.58;;;2.38;;
29878;SDS011;16752;53.364;-1.488;2023-04-25T15:03:31;4.75;;;2.08;;
29878;SDS011;16752;53.364;-1.488;2023-04-25T15:10:27;6.88;;;2.00;;
29878;SDS011;16752;53.364;-1.488;2023-04-25T15:13:12;6.03;;;1.88;;
29878;SDS011;16752;53.364;-1.488;2023-04-25T15:20:27;4.68;;;2.45;;
29878;SDS011;16752;53.364;-1.488;2023-04-25T15:27:13;2.95;;;1.55;;
29878;SDS011;16752;53.364;-1.488;2023-04-25T15:33:58;3.47;;;1.83;;
29878;SDS011;16752;53.364;-1.488;2023-04-25T15:41:12;6.93;;;2.13;;
29878;SDS011;16752;53.364;-1.488;2023-04-25T15:47:09;3.05;;;1.80;;
29878;SDS011;16752;53.364;-1.488;2023-04-25T15:54:30;4.22;;;2.28;;
29878;SDS011;16752;53.364;-1.488;2023-04-25T16:01:04;6.30;;;2.00;;
29878;SDS011;16752;53.364;-1.488;2023-04-25T16:03:50;2.72;;;1.77;;
29878;SDS011;16752;53.364;-1.488;2023-04-25T16:06:37;2.72;;;1.60;;
29878;SDS011;16752;53.364;-1.488;2023-04-25T16:09:27;3.28;;;2.00;;
29878;SDS011;16752;53.364;-1.488;2023-04-25T16:12:16;4.22;;;1.80;;
29878;SDS011;16752;53.364;-1.488;2023-04-25T16:15:14;2.15;;;1.50;;
29878;SDS011;16752;53.364;-1.488;2023-04-25T16:17:59;2.88;;;2.05;;
29878;SDS011;16752;53.364;-1.488;2023-04-25T16:20:56;7.18;;;1.85;;
29878;SDS011;16752;53.364;-1.488;2023-04-25T16:23:41;4.35;;;2.33;;
29878;SDS011;16752;53.364;-1.488;2023-04-25T16:26:31;2.25;;;1.73;;
29878;SDS011;16752;53.364;-1.488;2023-04-25T16:29:20;2.88;;;1.23;;
29878;SDS011;16752;53.364;-1.488;2023-04-25T16:32:10;3.50;;;1.90;;
29878;SDS011;16752;53.364;-1.488;2023-04-25T16:34:57;13.18;;;2.17;;
29878;SDS011;16752;53.364;-1.488;2023-04-25T16:37:42;5.55;;;2.40;;
29878;SDS011;16752;53.364;-1.488;2023-04-25T16:40:34;3.97;;;1.73;;
29878;SDS011;16752;53.364;-1.488;2023-04-25T16:43:20;4.25;;;2.15;;
29878;SDS011;16752;53.364;-1.488;2023-04-25T16:46:20;3.83;;;1.52;;
29878;SDS011;16752;53.364;-1.488;2023-04-25T16:50:01;6.75;;;1.73;;
29878;SDS011;16752;53.364;-1.488;2023-04-25T16:52:59;3.15;;;2.28;;
29878;SDS011;16752;53.364;-1.488;2023-04-25T16:55:43;6.90;;;2.33;;
29878;SDS011;16752;53.364;-1.488;2023-04-25T16:58:29;4.22;;;2.03;;
29878;SDS011;16752;53.364;-1.488;2023-04-25T17:01:18;4.30;;;2.20;;
29878;SDS011;16752;53.364;-1.488;2023-04-25T17:04:35;5.68;;;2.17;;
29878;SDS011;16752;53.364;-1.488;2023-04-25T17:07:48;3.47;;;1.98;;
29878;SDS011;16752;53.364;-1.488;2023-04-25T17:11:03;3.28;;;2.05;;
29878;SDS011;16752;53.364;-1.488;2023-04-25T17:13:58;5.40;;;2.33;;
29878;SDS011;16752;53.364;-1.488;2023-04-25T17:20:10;3.08;;;1.85;;
29878;SDS011;16752;53.364;-1.488;2023-04-25T17:23:00;4.05;;;1.98;;
29878;SDS011;16752;53.364;-1.488;2023-04-25T17:25:48;5.07;;;2.13;;
29878;SDS011;16752;53.364;-1.488;2023-04-25T17:28:35;5.65;;;2.65;;
29878;SDS011;16752;53.364;-1.488;2023-04-25T17:31:19;2.35;;;1.55;;
29878;SDS011;16752;53.364;-1.488;2023-04-25T17:34:05;4.30;;;2.30;;
29878;SDS011;16752;53.364;-1.488;2023-04-25T17:36:52;5.65;;;2.58;;
29878;SDS011;16752;53.364;-1.488;2023-04-25T17:39:35;12.05;;;4.13;;
29878;SDS011;16752;53.364;-1.488;2023-04-25T17:42:20;8.65;;;3.15;;
29878;SDS011;16752;53.364;-1.488;2023-04-25T17:45:08;7.60;;;3.78;;
29878;SDS011;16752;53.364;-1.488;2023-04-25T17:47:55;6.75;;;3.22;;
29878;SDS011;16752;53.364;-1.488;2023-04-25T17:50:47;5.90;;;3.63;;
29878;SDS011;16752;53.364;-1.488;2023-04-25T17:53:43;5.32;;;2.95;;
29878;SDS011;16752;53.364;-1.488;2023-04-25T17:56:27;7.78;;;3.40;;
29878;SDS011;16752;53.364;-1.488;2023-04-25T17:59:11;8.15;;;3.58;;
29878;SDS011;16752;53.364;-1.488;2023-04-25T18:01:56;11.32;;;4.15;;
29878;SDS011;16752;53.364;-1.488;2023-04-25T18:04:42;8.70;;;3.35;;
29878;SDS011;16752;53.364;-1.488;2023-04-25T18:07:26;9.57;;;3.40;;
29878;SDS011;16752;53.364;-1.488;2023-04-25T18:10:10;12.90;;;5.47;;
29878;SDS011;16752;53.364;-1.488;2023-04-25T18:12:54;8.65;;;4.10;;
29878;SDS011;16752;53.364;-1.488;2023-04-25T18:15:38;8.65;;;3.70;;
29878;SDS011;16752;53.364;-1.488;2023-04-25T18:18:23;8.40;;;4.55;;
29878;SDS011;16752;53.364;-1.488;2023-04-25T18:21:10;10.55;;;4.18;;
29878;SDS011;16752;53.364;-1.488;2023-04-25T18:23:59;8.57;;;4.82;;
29878;SDS011;16752;53.364;-1.488;2023-04-25T18:26:44;10.55;;;5.45;;
29878;SDS011;16752;53.364;-1.488;2023-04-25T18:29:32;8.30;;;4.90;;
29878;SDS011;16752;53.364;-1.488;2023-04-25T18:32:16;10.93;;;4.28;;
29878;SDS011;16752;53.364;-1.488;2023-04-25T18:35:00;17.13;;;5.78;;
29878;SDS011;16752;53.364;-1.488;2023-04-25T18:37:45;8.20;;;4.57;;
29878;SDS011;16752;53.364;-1.488;2023-04-25T18:40:29;9.27;;;4.30;;
29878;SDS011;16752;53.364;-1.488;2023-04-25T18:43:19;9.75;;;5.15;;
29878;SDS011;16752;53.364;-1.488;2023-04-25T18:46:07;8.98;;;5.00;;
29878;SDS011;16752;53.364;-1.488;2023-04-25T18:48:52;11.53;;;4.73;;
29878;SDS011;16752;53.364;-1.488;2023-04-25T18:51:37;13.23;;;5.40;;
29878;SDS011;16752;53.364;-1.488;2023-04-25T18:54:28;13.45;;;6.30;;
29878;SDS011;16752;53.364;-1.488;2023-04-25T18:57:13;13.25;;;4.50;;
29878;SDS011;16752;53.364;-1.488;2023-04-25T18:59:58;9.80;;;4.82;;
29878;SDS011;16752;53.364;-1.488;2023-04-25T19:02:48;6.55;;;4.20;;
29878;SDS011;16752;53.364;-1.488;2023-04-25T19:05:32;9.75;;;4.97;;
29878;SDS011;16752;53.364;-1.488;2023-04-25T19:08:16;13.73;;;4.00;;
29878;SDS011;16752;53.364;-1.488;2023-04-25T19:11:00;7.28;;;4.38;;
29878;SDS011;16752;53.364;-1.488;2023-04-25T19:13:45;8.57;;;4.60;;
29878;SDS011;16752;53.364;-1.488;2023-04-25T19:16:29;7.15;;;3.58;;